Terminal Aerodrome Forecast
Issued by NWS

Home | Current Version | Previous Version | Text Only | Print | Product List | Glossary On
Versions: 1 2 3 4 5 6 7 8 9 10 11 12 13 14 15 16 17 18 19 20 21
000
FTUS41 KPBZ 031900 AAA
TAFZZV
TAF AMD
KZZV 031914Z 0319/0418 20008KT 4SM -RA BR OVC007 WS020/23045KT
     FM040000 27010KT 2SM -RA BR OVC008 WS020/23045KT
     FM041100 VRB05KT 4SM -SN OVC010
     FM041700 32008KT 2SM -SN BR OVC007=

USA.gov is the U.S. government's official web portal to all federal, state and local government web resources and services.